sensor_id;sensor_type;location;lat;lon;timestamp;temperature;humidity
65478;SHT31;53678;39.642;22.430;2022-12-15T00:00:59;11.81;93.04
65478;SHT31;53678;39.642;22.430;2022-12-15T00:03:43;11.73;93.10
65478;SHT31;53678;39.642;22.430;2022-12-15T00:06:28;11.77;93.11
65478;SHT31;53678;39.642;22.430;2022-12-15T00:09:12;11.78;93.24
65478;SHT31;53678;39.642;22.430;2022-12-15T00:11:58;11.77;93.20
65478;SHT31;53678;39.642;22.430;2022-12-15T00:14:42;11.74;93.06
65478;SHT31;53678;39.642;22.430;2022-12-15T00:17:29;11.68;93.50
65478;SHT31;53678;39.642;22.430;2022-12-15T00:20:14;11.70;93.41
65478;SHT31;53678;39.642;22.430;2022-12-15T00:23:09;11.70;93.46
65478;SHT31;53678;39.642;22.430;2022-12-15T00:25:53;11.73;93.48
65478;SHT31;53678;39.642;22.430;2022-12-15T00:28:38;11.74;93.33
65478;SHT31;53678;39.642;22.430;2022-12-15T00:31:22;11.79;92.99
65478;SHT31;53678;39.642;22.430;2022-12-15T00:34:07;11.78;93.01
65478;SHT31;53678;39.642;22.430;2022-12-15T00:36:51;11.81;92.95
65478;SHT31;53678;39.642;22.430;2022-12-15T00:39:36;11.78;93.20
65478;SHT31;53678;39.642;22.430;2022-12-15T00:42:01;11.78;93.21
65478;SHT31;53678;39.642;22.430;2022-12-15T00:44:27;11.79;93.31
65478;SHT31;53678;39.642;22.430;2022-12-15T00:46:53;11.79;93.43
65478;SHT31;53678;39.642;22.430;2022-12-15T00:49:25;11.85;93.04
65478;SHT31;53678;39.642;22.430;2022-12-15T00:52:10;11.82;93.18
65478;SHT31;53678;39.642;22.430;2022-12-15T00:54:55;11.79;93.28
65478;SHT31;53678;39.642;22.430;2022-12-15T00:57:40;11.77;93.45
65478;SHT31;53678;39.642;22.430;2022-12-15T01:00:25;11.82;93.28
65478;SHT31;53678;39.642;22.430;2022-12-15T01:03:13;11.84;93.18
65478;SHT31;53678;39.642;22.430;2022-12-15T01:05:57;11.88;93.06
65478;SHT31;53678;39.642;22.430;2022-12-15T01:08:42;11.94;92.98
65478;SHT31;53678;39.642;22.430;2022-12-15T01:11:27;11.95;92.83
65478;SHT31;53678;39.642;22.430;2022-12-15T01:14:12;11.94;92.67
65478;SHT31;53678;39.642;22.430;2022-12-15T01:16:56;11.95;92.73
65478;SHT31;53678;39.642;22.430;2022-12-15T01:19:41;11.97;92.37
65478;SHT31;53678;39.642;22.430;2022-12-15T01:22:25;11.92;92.69
65478;SHT31;53678;39.642;22.430;2022-12-15T01:24:51;11.94;92.70
65478;SHT31;53678;39.642;22.430;2022-12-15T01:27:17;11.97;92.80
65478;SHT31;53678;39.642;22.430;2022-12-15T01:29:43;11.95;92.78
65478;SHT31;53678;39.642;22.430;2022-12-15T01:32:09;11.94;92.57
65478;SHT31;53678;39.642;22.430;2022-12-15T01:34:35;11.95;92.53
65478;SHT31;53678;39.642;22.430;2022-12-15T01:37:00;11.91;92.70
65478;SHT31;53678;39.642;22.430;2022-12-15T01:39:26;11.84;93.29
65478;SHT31;53678;39.642;22.430;2022-12-15T01:42:12;11.88;93.24
65478;SHT31;53678;39.642;22.430;2022-12-15T01:44:38;11.85;93.44
65478;SHT31;53678;39.642;22.430;2022-12-15T01:47:04;11.85;93.45
65478;SHT31;53678;39.642;22.430;2022-12-15T01:49:35;11.79;93.69
65478;SHT31;53678;39.642;22.430;2022-12-15T01:52:03;11.78;93.78
65478;SHT31;53678;39.642;22.430;2022-12-15T01:54:34;11.74;93.98
65478;SHT31;53678;39.642;22.430;2022-12-15T01:57:05;11.81;94.00
65478;SHT31;53678;39.642;22.430;2022-12-15T01:59:36;11.81;93.69
65478;SHT31;53678;39.642;22.430;2022-12-15T02:02:03;11.78;93.75
65478;SHT31;53678;39.642;22.430;2022-12-15T02:04:30;11.85;93.83
65478;SHT31;53678;39.642;22.430;2022-12-15T02:06:57;11.79;93.83
65478;SHT31;53678;39.642;22.430;2022-12-15T02:09:23;11.81;94.03
65478;SHT31;53678;39.642;22.430;2022-12-15T02:31:22;11.82;93.82
65478;SHT31;53678;39.642;22.430;2022-12-15T02:34:15;11.82;93.67
65478;SHT31;53678;39.642;22.430;2022-12-15T02:36:46;11.84;93.71
65478;SHT31;53678;39.642;22.430;2022-12-15T02:39:14;11.88;93.68
65478;SHT31;53678;39.642;22.430;2022-12-15T02:41:42;11.91;93.56
65478;SHT31;53678;39.642;22.430;2022-12-15T02:44:12;11.92;93.50
65478;SHT31;53678;39.642;22.430;2022-12-15T03:00:26;11.92;93.29
65478;SHT31;53678;39.642;22.430;2022-12-15T03:02:54;11.98;93.04
65478;SHT31;53678;39.642;22.430;2022-12-15T03:05:22;11.94;93.04
65478;SHT31;53678;39.642;22.430;2022-12-15T03:07:50;11.91;93.07
65478;SHT31;53678;39.642;22.430;2022-12-15T03:10:17;11.91;93.44
65478;SHT31;53678;39.642;22.430;2022-12-15T03:12:43;11.87;93.54
65478;SHT31;53678;39.642;22.430;2022-12-15T03:15:10;11.84;93.69
65478;SHT31;53678;39.642;22.430;2022-12-15T03:17:36;11.85;93.61
65478;SHT31;53678;39.642;22.430;2022-12-15T03:20:03;11.87;93.50
65478;SHT31;53678;39.642;22.430;2022-12-15T03:22:29;11.91;93.36
65478;SHT31;53678;39.642;22.430;2022-12-15T03:24:56;11.85;93.54
65478;SHT31;53678;39.642;22.430;2022-12-15T03:27:22;11.88;93.56
65478;SHT31;53678;39.642;22.430;2022-12-15T03:29:48;11.81;93.54
65478;SHT31;53678;39.642;22.430;2022-12-15T03:32:14;11.82;93.72
65478;SHT31;53678;39.642;22.430;2022-12-15T03:34:40;11.82;93.48
65478;SHT31;53678;39.642;22.430;2022-12-15T03:37:06;11.85;93.47
65478;SHT31;53678;39.642;22.430;2022-12-15T03:39:33;11.84;93.48
65478;SHT31;53678;39.642;22.430;2022-12-15T03:41:59;11.88;93.49
65478;SHT31;53678;39.642;22.430;2022-12-15T03:44:25;11.91;93.38
65478;SHT31;53678;39.642;22.430;2022-12-15T03:46:51;11.94;93.27
65478;SHT31;53678;39.642;22.430;2022-12-15T03:49:17;11.95;93.14
65478;SHT31;53678;39.642;22.430;2022-12-15T03:51:42;11.94;93.10
65478;SHT31;53678;39.642;22.430;2022-12-15T03:54:12;11.94;93.04
65478;SHT31;53678;39.642;22.430;2022-12-15T03:56:38;11.95;93.04
65478;SHT31;53678;39.642;22.430;2022-12-15T03:59:04;11.94;93.04
65478;SHT31;53678;39.642;22.430;2022-12-15T04:01:32;11.97;93.22
65478;SHT31;53678;39.642;22.430;2022-12-15T04:03:58;12.01;93.22
65478;SHT31;53678;39.642;22.430;2022-12-15T04:06:25;11.99;92.93
65478;SHT31;53678;39.642;22.430;2022-12-15T04:08:51;11.95;93.08
65478;SHT31;53678;39.642;22.430;2022-12-15T04:11:17;11.98;93.09
65478;SHT31;53678;39.642;22.430;2022-12-15T04:13:43;11.99;93.02
65478;SHT31;53678;39.642;22.430;2022-12-15T04:16:09;11.97;92.99
65478;SHT31;53678;39.642;22.430;2022-12-15T04:18:35;11.99;92.90
65478;SHT31;53678;39.642;22.430;2022-12-15T04:21:02;12.01;92.85
65478;SHT31;53678;39.642;22.430;2022-12-15T04:23:28;12.04;92.91
65478;SHT31;53678;39.642;22.430;2022-12-15T04:25:53;12.04;92.88
65478;SHT31;53678;39.642;22.430;2022-12-15T04:28:38;12.06;92.90
65478;SHT31;53678;39.642;22.430;2022-12-15T04:31:26;12.05;92.57
65478;SHT31;53678;39.642;22.430;2022-12-15T04:34:14;12.08;92.71
65478;SHT31;53678;39.642;22.430;2022-12-15T04:37:00;12.06;92.64
65478;SHT31;53678;39.642;22.430;2022-12-15T04:39:47;12.08;92.60
65478;SHT31;53678;39.642;22.430;2022-12-15T04:42:34;12.11;92.57
65478;SHT31;53678;39.642;22.430;2022-12-15T04:45:21;12.06;92.84
65478;SHT31;53678;39.642;22.430;2022-12-15T04:48:06;12.08;92.85
65478;SHT31;53678;39.642;22.430;2022-12-15T04:50:50;12.09;92.76
65478;SHT31;53678;39.642;22.430;2022-12-15T04:53:37;12.06;92.62
65478;SHT31;53678;39.642;22.430;2022-12-15T04:56:23;12.09;92.67
65478;SHT31;53678;39.642;22.430;2022-12-15T04:59:08;12.12;92.57
65478;SHT31;53678;39.642;22.430;2022-12-15T05:01:52;12.09;92.57
65478;SHT31;53678;39.642;22.430;2022-12-15T05:04:37;12.11;92.69
65478;SHT31;53678;39.642;22.430;2022-12-15T05:07:23;12.11;92.72
65478;SHT31;53678;39.642;22.430;2022-12-15T05:10:08;12.14;92.74
65478;SHT31;53678;39.642;22.430;2022-12-15T05:12:53;12.18;92.66
65478;SHT31;53678;39.642;22.430;2022-12-15T05:15:38;12.28;92.73
65478;SHT31;53678;39.642;22.430;2022-12-15T05:18:22;12.25;92.39
65478;SHT31;53678;39.642;22.430;2022-12-15T05:21:07;12.29;92.37
65478;SHT31;53678;39.642;22.430;2022-12-15T05:23:51;12.28;92.53
65478;SHT31;53678;39.642;22.430;2022-12-15T05:26:35;12.33;92.50
65478;SHT31;53678;39.642;22.430;2022-12-15T05:29:20;12.32;92.52
65478;SHT31;53678;39.642;22.430;2022-12-15T05:32:05;12.32;92.62
65478;SHT31;53678;39.642;22.430;2022-12-15T05:34:33;12.35;92.27
65478;SHT31;53678;39.642;22.430;2022-12-15T05:37:00;12.33;92.53
65478;SHT31;53678;39.642;22.430;2022-12-15T05:39:27;12.36;92.61
65478;SHT31;53678;39.642;22.430;2022-12-15T05:41:53;12.36;92.51
65478;SHT31;53678;39.642;22.430;2022-12-15T05:44:20;12.45;92.54
65478;SHT31;53678;39.642;22.430;2022-12-15T05:46:46;12.42;92.06
65478;SHT31;53678;39.642;22.430;2022-12-15T05:49:14;12.42;92.17
65478;SHT31;53678;39.642;22.430;2022-12-15T05:51:41;12.39;92.28
65478;SHT31;53678;39.642;22.430;2022-12-15T05:54:08;12.39;92.30
65478;SHT31;53678;39.642;22.430;2022-12-15T05:56:35;12.43;92.17
65478;SHT31;53678;39.642;22.430;2022-12-15T05:59:01;12.49;92.08
65478;SHT31;53678;39.642;22.430;2022-12-15T06:01:28;12.45;92.32
65478;SHT31;53678;39.642;22.430;2022-12-15T06:03:56;12.42;92.26
65478;SHT31;53678;39.642;22.430;2022-12-15T06:06:23;12.55;92.53
65478;SHT31;53678;39.642;22.430;2022-12-15T06:08:49;12.50;91.96
65478;SHT31;53678;39.642;22.430;2022-12-15T06:11:17;12.50;92.06
65478;SHT31;53678;39.642;22.430;2022-12-15T06:13:44;12.52;91.88
65478;SHT31;53678;39.642;22.430;2022-12-15T06:16:13;12.55;91.89
65478;SHT31;53678;39.642;22.430;2022-12-15T06:18:41;12.63;91.28
65478;SHT31;53678;39.642;22.430;2022-12-15T06:21:10;12.70;90.82
65478;SHT31;53678;39.642;22.430;2022-12-15T06:23:37;12.79;90.82
65478;SHT31;53678;39.642;22.430;2022-12-15T06:26:11;12.73;90.73
65478;SHT31;53678;39.642;22.430;2022-12-15T06:28:38;12.66;90.80
65478;SHT31;53678;39.642;22.430;2022-12-15T06:31:05;12.70;91.07
65478;SHT31;53678;39.642;22.430;2022-12-15T06:33:32;12.63;90.79
65478;SHT31;53678;39.642;22.430;2022-12-15T06:36:02;12.61;91.12
65478;SHT31;53678;39.642;22.430;2022-12-15T06:38:29;12.70;91.29
65478;SHT31;53678;39.642;22.430;2022-12-15T06:40:56;12.73;90.88
65478;SHT31;53678;39.642;22.430;2022-12-15T06:43:22;12.81;91.00
65478;SHT31;53678;39.642;22.430;2022-12-15T06:45:48;13.01;90.28
65478;SHT31;53678;39.642;22.430;2022-12-15T06:48:15;12.90;90.31
65478;SHT31;53678;39.642;22.430;2022-12-15T06:50:40;12.90;90.13
65478;SHT31;53678;39.642;22.430;2022-12-15T06:53:06;12.97;89.80
65478;SHT31;53678;39.642;22.430;2022-12-15T06:55:32;12.88;89.91
65478;SHT31;53678;39.642;22.430;2022-12-15T06:57:58;12.95;89.77
65478;SHT31;53678;39.642;22.430;2022-12-15T07:00:24;12.81;90.08
65478;SHT31;53678;39.642;22.430;2022-12-15T07:02:52;12.83;90.58
65478;SHT31;53678;39.642;22.430;2022-12-15T07:05:19;12.94;89.90
65478;SHT31;53678;39.642;22.430;2022-12-15T07:07:46;13.05;89.65
65478;SHT31;53678;39.642;22.430;2022-12-15T07:10:12;12.95;89.55
65478;SHT31;53678;39.642;22.430;2022-12-15T07:12:39;12.85;90.11
65478;SHT31;53678;39.642;22.430;2022-12-15T07:15:05;12.91;90.27
65478;SHT31;53678;39.642;22.430;2022-12-15T07:17:34;12.90;90.24
65478;SHT31;53678;39.642;22.430;2022-12-15T07:20:00;12.90;90.56
65478;SHT31;53678;39.642;22.430;2022-12-15T07:22:27;13.00;90.44
65478;SHT31;53678;39.642;22.430;2022-12-15T07:24:53;13.08;90.17
65478;SHT31;53678;39.642;22.430;2022-12-15T07:27:18;13.25;89.09
65478;SHT31;53678;39.642;22.430;2022-12-15T07:29:44;13.52;88.56
65478;SHT31;53678;39.642;22.430;2022-12-15T07:32:11;13.43;88.42
65478;SHT31;53678;39.642;22.430;2022-12-15T07:34:37;13.46;88.30
65478;SHT31;53678;39.642;22.430;2022-12-15T07:37:03;13.43;88.25
65478;SHT31;53678;39.642;22.430;2022-12-15T07:39:29;13.41;88.22
65478;SHT31;53678;39.642;22.430;2022-12-15T07:41:55;13.39;88.69
65478;SHT31;53678;39.642;22.430;2022-12-15T07:44:22;13.35;88.72
65478;SHT31;53678;39.642;22.430;2022-12-15T07:46:48;13.46;88.54
65478;SHT31;53678;39.642;22.430;2022-12-15T07:49:15;13.58;90.28
65478;SHT31;53678;39.642;22.430;2022-12-15T07:51:42;13.56;88.54
65478;SHT31;53678;39.642;22.430;2022-12-15T07:54:10;13.58;88.45
65478;SHT31;53678;39.642;22.430;2022-12-15T07:56:39;13.58;88.61
65478;SHT31;53678;39.642;22.430;2022-12-15T07:59:06;13.52;88.31
65478;SHT31;53678;39.642;22.430;2022-12-15T08:01:32;13.52;88.82
65478;SHT31;53678;39.642;22.430;2022-12-15T08:04:01;13.61;88.89
65478;SHT31;53678;39.642;22.430;2022-12-15T08:06:27;13.65;88.35
65478;SHT31;53678;39.642;22.430;2022-12-15T08:08:52;13.58;88.96
65478;SHT31;53678;39.642;22.430;2022-12-15T08:11:21;13.59;88.96
65478;SHT31;53678;39.642;22.430;2022-12-15T08:13:49;13.65;88.91
65478;SHT31;53678;39.642;22.430;2022-12-15T08:16:15;13.77;88.66
65478;SHT31;53678;39.642;22.430;2022-12-15T08:18:41;13.93;88.29
65478;SHT31;53678;39.642;22.430;2022-12-15T08:21:08;13.99;87.84
65478;SHT31;53678;39.642;22.430;2022-12-15T08:23:35;14.48;87.26
65478;SHT31;53678;39.642;22.430;2022-12-15T08:26:09;15.09;85.54
65478;SHT31;53678;39.642;22.430;2022-12-15T08:28:38;15.30;83.44
65478;SHT31;53678;39.642;22.430;2022-12-15T08:31:09;15.78;81.06
65478;SHT31;53678;39.642;22.430;2022-12-15T08:33:37;16.15;80.96
65478;SHT31;53678;39.642;22.430;2022-12-15T08:36:08;16.34;80.28
65478;SHT31;53678;39.642;22.430;2022-12-15T08:38:36;16.53;79.21
65478;SHT31;53678;39.642;22.430;2022-12-15T08:41:15;16.13;80.80
65478;SHT31;53678;39.642;22.430;2022-12-15T08:43:47;16.09;80.72
65478;SHT31;53678;39.642;22.430;2022-12-15T08:46:15;16.30;80.84
65478;SHT31;53678;39.642;22.430;2022-12-15T08:48:41;16.59;79.53
65478;SHT31;53678;39.642;22.430;2022-12-15T08:51:10;16.67;78.81
65478;SHT31;53678;39.642;22.430;2022-12-15T08:53:39;16.89;80.10
65478;SHT31;53678;39.642;22.430;2022-12-15T08:56:11;17.05;78.12
65478;SHT31;53678;39.642;22.430;2022-12-15T08:58:38;17.00;78.66
65478;SHT31;53678;39.642;22.430;2022-12-15T09:01:06;17.12;77.55
65478;SHT31;53678;39.642;22.430;2022-12-15T09:03:34;17.12;77.92
65478;SHT31;53678;39.642;22.430;2022-12-15T09:06:10;17.12;78.02
65478;SHT31;53678;39.642;22.430;2022-12-15T09:08:37;16.98;78.05
65478;SHT31;53678;39.642;22.430;2022-12-15T09:11:03;17.10;78.27
65478;SHT31;53678;39.642;22.430;2022-12-15T09:13:32;17.23;78.04
65478;SHT31;53678;39.642;22.430;2022-12-15T09:18:26;17.04;78.59
65478;SHT31;53678;39.642;22.430;2022-12-15T09:20:53;16.80;78.87
65478;SHT31;53678;39.642;22.430;2022-12-15T09:23:20;16.70;79.45
65478;SHT31;53678;39.642;22.430;2022-12-15T09:25:46;16.37;80.35
65478;SHT31;53678;39.642;22.430;2022-12-15T09:28:13;16.30;81.39
65478;SHT31;53678;39.642;22.430;2022-12-15T09:30:39;16.16;81.00
65478;SHT31;53678;39.642;22.430;2022-12-15T09:33:05;16.04;81.80
65478;SHT31;53678;39.642;22.430;2022-12-15T09:35:31;16.10;81.52
65478;SHT31;53678;39.642;22.430;2022-12-15T09:37:56;16.30;81.14
65478;SHT31;53678;39.642;22.430;2022-12-15T09:40:23;16.50;80.79
65478;SHT31;53678;39.642;22.430;2022-12-15T09:42:52;16.57;80.25
65478;SHT31;53678;39.642;22.430;2022-12-15T09:45:38;16.70;79.47
65478;SHT31;53678;39.642;22.430;2022-12-15T09:48:12;16.80;80.10
65478;SHT31;53678;39.642;22.430;2022-12-15T09:50:39;16.91;80.37
65478;SHT31;53678;39.642;22.430;2022-12-15T09:53:11;17.19;79.74
65478;SHT31;53678;39.642;22.430;2022-12-15T09:55:38;17.12;78.40
65478;SHT31;53678;39.642;22.430;2022-12-15T09:59:04;16.94;79.53
65478;SHT31;53678;39.642;22.430;2022-12-15T10:04:20;16.92;79.97
65478;SHT31;53678;39.642;22.430;2022-12-15T10:07:12;17.07;79.78
65478;SHT31;53678;39.642;22.430;2022-12-15T10:09:40;17.11;79.23
65478;SHT31;53678;39.642;22.430;2022-12-15T10:12:21;16.96;79.58
65478;SHT31;53678;39.642;22.430;2022-12-15T10:15:06;16.96;80.29
65478;SHT31;53678;39.642;22.430;2022-12-15T10:17:58;16.87;80.49
65478;SHT31;53678;39.642;22.430;2022-12-15T10:20:28;16.95;80.49
65478;SHT31;53678;39.642;22.430;2022-12-15T10:23:15;17.15;79.85
65478;SHT31;53678;39.642;22.430;2022-12-15T10:25:47;17.35;78.89
65478;SHT31;53678;39.642;22.430;2022-12-15T10:31:22;17.52;77.77
65478;SHT31;53678;39.642;22.430;2022-12-15T10:33:57;17.60;77.65
65478;SHT31;53678;39.642;22.430;2022-12-15T10:36:25;17.52;78.15
65478;SHT31;53678;39.642;22.430;2022-12-15T10:38:51;17.43;77.88
65478;SHT31;53678;39.642;22.430;2022-12-15T10:41:25;17.33;78.50
65478;SHT31;53678;39.642;22.430;2022-12-15T10:43:52;17.35;78.25
65478;SHT31;53678;39.642;22.430;2022-12-15T10:46:29;17.35;79.08
65478;SHT31;53678;39.642;22.430;2022-12-15T10:48:58;17.46;78.73
65478;SHT31;53678;39.642;22.430;2022-12-15T10:51:32;17.50;78.48
65478;SHT31;53678;39.642;22.430;2022-12-15T10:56:56;17.59;78.34
65478;SHT31;53678;39.642;22.430;2022-12-15T10:59:31;17.62;78.57
65478;SHT31;53678;39.642;22.430;2022-12-15T11:02:37;17.65;78.37
65478;SHT31;53678;39.642;22.430;2022-12-15T11:07:44;17.69;78.29
65478;SHT31;53678;39.642;22.430;2022-12-15T11:15:39;17.79;78.59
65478;SHT31;53678;39.642;22.430;2022-12-15T11:26:34;17.91;78.23
65478;SHT31;53678;39.642;22.430;2022-12-15T11:29:20;17.79;78.53
65478;SHT31;53678;39.642;22.430;2022-12-15T11:31:50;17.86;78.34
65478;SHT31;53678;39.642;22.430;2022-12-15T11:34:22;17.89;78.21
65478;SHT31;53678;39.642;22.430;2022-12-15T11:48:28;17.54;79.76
65478;SHT31;53678;39.642;22.430;2022-12-15T11:51:02;17.52;80.16
65478;SHT31;53678;39.642;22.430;2022-12-15T12:04:20;17.76;79.94
65478;SHT31;53678;39.642;22.430;2022-12-15T12:09:51;17.74;79.82
65478;SHT31;53678;39.642;22.430;2022-12-15T12:12:39;17.76;79.93
65478;SHT31;53678;39.642;22.430;2022-12-15T12:17:52;17.76;79.74
65478;SHT31;53678;39.642;22.430;2022-12-15T12:20:38;17.69;79.67
65478;SHT31;53678;39.642;22.430;2022-12-15T12:23:29;17.69;79.89
65478;SHT31;53678;39.642;22.430;2022-12-15T12:26:06;17.56;80.26
65478;SHT31;53678;39.642;22.430;2022-12-15T12:31:56;17.31;81.17
65478;SHT31;53678;39.642;22.430;2022-12-15T12:37:35;17.25;81.36
65478;SHT31;53678;39.642;22.430;2022-12-15T12:42:52;17.31;81.43
65478;SHT31;53678;39.642;22.430;2022-12-15T12:45:18;17.36;81.02
65478;SHT31;53678;39.642;22.430;2022-12-15T12:47:47;17.39;81.02
65478;SHT31;53678;39.642;22.430;2022-12-15T12:50:19;17.50;81.12
65478;SHT31;53678;39.642;22.430;2022-12-15T12:52:51;17.50;80.79
65478;SHT31;53678;39.642;22.430;2022-12-15T12:57:55;17.65;80.47
65478;SHT31;53678;39.642;22.430;2022-12-15T13:00:31;17.87;79.32
65478;SHT31;53678;39.642;22.430;2022-12-15T13:03:16;17.81;79.50
65478;SHT31;53678;39.642;22.430;2022-12-15T13:05:44;17.67;79.94
65478;SHT31;53678;39.642;22.430;2022-12-15T13:08:15;17.62;81.37
65478;SHT31;53678;39.642;22.430;2022-12-15T13:10:44;17.56;82.34
65478;SHT31;53678;39.642;22.430;2022-12-15T13:16:05;17.53;82.44
65478;SHT31;53678;39.642;22.430;2022-12-15T13:18:59;17.53;82.34
65478;SHT31;53678;39.642;22.430;2022-12-15T13:24:21;17.43;82.00
65478;SHT31;53678;39.642;22.430;2022-12-15T13:26:50;17.39;82.16
65478;SHT31;53678;39.642;22.430;2022-12-15T13:29:19;17.43;80.80
65478;SHT31;53678;39.642;22.430;2022-12-15T13:31:48;17.47;81.49
65478;SHT31;53678;39.642;22.430;2022-12-15T13:34:17;17.29;81.55
65478;SHT31;53678;39.642;22.430;2022-12-15T13:36:48;17.22;82.07
65478;SHT31;53678;39.642;22.430;2022-12-15T13:44:36;17.31;82.49
65478;SHT31;53678;39.642;22.430;2022-12-15T13:47:11;17.23;82.58
65478;SHT31;53678;39.642;22.430;2022-12-15T13:49:55;17.22;83.02
65478;SHT31;53678;39.642;22.430;2022-12-15T13:54:54;17.10;83.52
65478;SHT31;53678;39.642;22.430;2022-12-15T13:57:23;17.00;83.96
65478;SHT31;53678;39.642;22.430;2022-12-15T14:00:12;17.01;83.89
65478;SHT31;53678;39.642;22.430;2022-12-15T14:02:43;17.00;83.89
65478;SHT31;53678;39.642;22.430;2022-12-15T14:13:30;17.05;83.74
65478;SHT31;53678;39.642;22.430;2022-12-15T14:18:28;16.94;83.81
65478;SHT31;53678;39.642;22.430;2022-12-15T14:20:54;16.91;84.34
65478;SHT31;53678;39.642;22.430;2022-12-15T14:23:22;16.85;84.39
65478;SHT31;53678;39.642;22.430;2022-12-15T14:26:05;16.77;84.71
65478;SHT31;53678;39.642;22.430;2022-12-15T14:28:34;16.66;85.03
65478;SHT31;53678;39.642;22.430;2022-12-15T14:31:05;16.54;85.28
65478;SHT31;53678;39.642;22.430;2022-12-15T14:33:40;16.56;85.54
65478;SHT31;53678;39.642;22.430;2022-12-15T14:36:11;16.60;85.03
65478;SHT31;53678;39.642;22.430;2022-12-15T14:38:42;16.39;85.85
65478;SHT31;53678;39.642;22.430;2022-12-15T14:41:19;16.26;86.44
65478;SHT31;53678;39.642;22.430;2022-12-15T14:43:46;16.20;87.03
65478;SHT31;53678;39.642;22.430;2022-12-15T14:46:18;16.15;87.02
65478;SHT31;53678;39.642;22.430;2022-12-15T14:48:58;16.26;86.94
65478;SHT31;53678;39.642;22.430;2022-12-15T14:51:27;16.22;86.87
65478;SHT31;53678;39.642;22.430;2022-12-15T14:53:53;16.08;87.47
65478;SHT31;53678;39.642;22.430;2022-12-15T14:56:26;16.05;87.66
65478;SHT31;53678;39.642;22.430;2022-12-15T14:59:00;16.04;88.05
65478;SHT31;53678;39.642;22.430;2022-12-15T15:01:38;15.99;87.98
65478;SHT31;53678;39.642;22.430;2022-12-15T15:04:24;15.89;88.02
65478;SHT31;53678;39.642;22.430;2022-12-15T15:07:02;15.82;88.67
65478;SHT31;53678;39.642;22.430;2022-12-15T15:09:32;15.69;88.97
65478;SHT31;53678;39.642;22.430;2022-12-15T15:12:02;15.64;89.28
65478;SHT31;53678;39.642;22.430;2022-12-15T15:14:37;15.58;89.61
65478;SHT31;53678;39.642;22.430;2022-12-15T15:20:18;15.44;90.04
65478;SHT31;53678;39.642;22.430;2022-12-15T15:22:46;15.43;90.63
65478;SHT31;53678;39.642;22.430;2022-12-15T15:28:21;15.33;90.58
65478;SHT31;53678;39.642;22.430;2022-12-15T15:33:20;15.26;91.04
65478;SHT31;53678;39.642;22.430;2022-12-15T15:35:51;15.26;91.00
65478;SHT31;53678;39.642;22.430;2022-12-15T15:38:28;15.22;91.08
65478;SHT31;53678;39.642;22.430;2022-12-15T15:40:58;15.23;91.36
65478;SHT31;53678;39.642;22.430;2022-12-15T15:43:26;15.20;91.23
65478;SHT31;53678;39.642;22.430;2022-12-15T15:46:04;15.16;91.38
65478;SHT31;53678;39.642;22.430;2022-12-15T15:48:33;15.19;91.64
65478;SHT31;53678;39.642;22.430;2022-12-15T15:51:00;15.24;91.65
65478;SHT31;53678;39.642;22.430;2022-12-15T15:53:29;15.23;91.69
65478;SHT31;53678;39.642;22.430;2022-12-15T15:55:56;15.19;91.67
65478;SHT31;53678;39.642;22.430;2022-12-15T15:58:23;15.16;91.66
65478;SHT31;53678;39.642;22.430;2022-12-15T16:00:49;15.24;91.44
65478;SHT31;53678;39.642;22.430;2022-12-15T16:03:15;15.23;91.45
65478;SHT31;53678;39.642;22.430;2022-12-15T16:05:41;15.14;91.61
65478;SHT31;53678;39.642;22.430;2022-12-15T16:08:13;15.14;91.79
65478;SHT31;53678;39.642;22.430;2022-12-15T16:10:42;15.14;91.90
65478;SHT31;53678;39.642;22.430;2022-12-15T16:13:10;15.14;91.81
65478;SHT31;53678;39.642;22.430;2022-12-15T16:15:36;15.14;91.91
65478;SHT31;53678;39.642;22.430;2022-12-15T16:18:02;15.07;91.94
65478;SHT31;53678;39.642;22.430;2022-12-15T16:20:28;15.17;91.70
65478;SHT31;53678;39.642;22.430;2022-12-15T16:23:21;15.14;91.41
65478;SHT31;53678;39.642;22.430;2022-12-15T16:25:53;15.10;91.63
65478;SHT31;53678;39.642;22.430;2022-12-15T16:28:22;15.02;91.65
65478;SHT31;53678;39.642;22.430;2022-12-15T16:30:48;14.92;92.08
65478;SHT31;53678;39.642;22.430;2022-12-15T16:33:15;14.83;92.28
65478;SHT31;53678;39.642;22.430;2022-12-15T16:35:43;14.82;92.45
65478;SHT31;53678;39.642;22.430;2022-12-15T16:38:16;14.78;92.60
65478;SHT31;53678;39.642;22.430;2022-12-15T16:40:44;14.75;92.76
65478;SHT31;53678;39.642;22.430;2022-12-15T16:43:21;14.75;93.04
65478;SHT31;53678;39.642;22.430;2022-12-15T16:45:50;14.69;92.98
65478;SHT31;53678;39.642;22.430;2022-12-15T16:48:16;14.68;93.09
65478;SHT31;53678;39.642;22.430;2022-12-15T16:50:45;14.64;93.20
65478;SHT31;53678;39.642;22.430;2022-12-15T16:53:21;14.65;93.40
65478;SHT31;53678;39.642;22.430;2022-12-15T16:55:54;14.67;93.39
65478;SHT31;53678;39.642;22.430;2022-12-15T16:58:21;14.68;93.57
65478;SHT31;53678;39.642;22.430;2022-12-15T17:00:47;14.71;93.47
65478;SHT31;53678;39.642;22.430;2022-12-15T17:03:16;14.65;93.37
65478;SHT31;53678;39.642;22.430;2022-12-15T17:05:47;14.71;93.43
65478;SHT31;53678;39.642;22.430;2022-12-15T17:08:23;14.75;93.10
65478;SHT31;53678;39.642;22.430;2022-12-15T17:10:51;14.69;92.96
65478;SHT31;53678;39.642;22.430;2022-12-15T17:13:33;14.61;93.02
65478;SHT31;53678;39.642;22.430;2022-12-15T17:16:00;14.54;93.19
65478;SHT31;53678;39.642;22.430;2022-12-15T17:18:26;14.51;93.45
65478;SHT31;53678;39.642;22.430;2022-12-15T17:21:02;14.49;93.59
65478;SHT31;53678;39.642;22.430;2022-12-15T17:23:28;14.44;93.66
65478;SHT31;53678;39.642;22.430;2022-12-15T17:25:54;14.40;93.85
65478;SHT31;53678;39.642;22.430;2022-12-15T17:28:23;14.38;93.92
65478;SHT31;53678;39.642;22.430;2022-12-15T17:30:51;14.37;93.98
65478;SHT31;53678;39.642;22.430;2022-12-15T17:33:22;14.38;94.00
65478;SHT31;53678;39.642;22.430;2022-12-15T17:35:50;14.40;94.08
65478;SHT31;53678;39.642;22.430;2022-12-15T17:38:18;14.37;93.81
65478;SHT31;53678;39.642;22.430;2022-12-15T17:40:46;14.30;93.60
65478;SHT31;53678;39.642;22.430;2022-12-15T17:43:20;14.24;93.91
65478;SHT31;53678;39.642;22.430;2022-12-15T17:45:46;14.24;94.08
65478;SHT31;53678;39.642;22.430;2022-12-15T17:48:16;14.20;94.11
65478;SHT31;53678;39.642;22.430;2022-12-15T17:50:42;14.18;94.22
65478;SHT31;53678;39.642;22.430;2022-12-15T17:53:16;14.17;94.22
65478;SHT31;53678;39.642;22.430;2022-12-15T17:55:43;14.20;94.18
65478;SHT31;53678;39.642;22.430;2022-12-15T17:58:19;14.18;94.20